Hlavní strana
METAR-TAF:

METAR-TAF

Letiště :

Pointe-Noire, Kongo

zeměpisná šířka: 04-49S, zeměpisná délka: 011-54E, výška: 17 m

Aktuální stav počasí

Zpráva byla vytvořena před 1 hodinou a 6 minutami, v 21:00 UTC
vítr z různých směrů 2 kt
Teplota 25°C
Vlhkost vzduchu 89%
Tlak 1012 hPa
Viditelnost: 8000 m
Polojasno ve výšce 1000 ft

METAR: FCPP 252100Z VRB02KT 8000 SCT010 25/23 Q1012 NOSIG

Čas: 23:06 (22:06 UTC)

Předpověď počasí

Zpráva byla vytvořena před 5 hodinami a 6 minutami, v 17:00 UTC
Předpověď platná od 25 v 18 UTC do 26 v 18 UTC
Jihojihovýchodní vítr 6 kt
Viditelnost 10 km a více
Polojasno ve výšce 1000 ft
Oblačno až skoro zataženo ve výšce 2300 ft
Změna
od 26 v 12 UTC do 26 v 14 UTC
Polojasno ve výšce 1600 ft
Skoro jasno ve výšce 3000 ft, Cumulonimbus.

TAF: FCPP 251700Z 2518/2618 16006KT 9999 SCT010 BKN023 BECMG 2612/2614 SCT016 FEW030CB

Stav a předpovědi počasí z více než 4 000 letišť (zprávy METAR a TAF).

Červené a žluté tečky na mapě představují dostupné meteorologické stanice.

Když kurzor umístíte na tečku, zobrazí se název stanice.

Pak kliknutím zobrazíte stav a předpověď počasí.

Chcete-li změnit mapu, kliknutím na zelené tlačítko se znaménkem +mapu přiblížíte, kliknutím na zelené tlačítko se znaménkem – mapu oddálíte a kliknutím na zelené šipky přejdete na sousední mapy.


METAR-TAF: